createdAt,value
2019-04-21T00:00:24.196Z,21.40
2019-04-21T00:03:07.305Z,18.30
2019-04-21T00:05:57.186Z,17.62
2019-04-21T00:08:37.924Z,19.48
2019-04-21T00:13:42.640Z,18.32
2019-04-21T00:16:10.650Z,17.02
2019-04-21T00:19:12.970Z,18.15
2019-04-21T00:21:51.142Z,19.07
2019-04-21T00:24:36.374Z,18.42
2019-04-21T00:27:15.638Z,17.77
2019-04-21T00:29:52.107Z,17.80
2019-04-21T00:32:25.394Z,19.45
2019-04-21T00:34:56.590Z,21.27
2019-04-21T00:37:46.986Z,19.17
2019-04-21T00:40:27.477Z,19.70
2019-04-21T00:43:00.894Z,16.50
2019-04-21T00:45:36.444Z,18.70
2019-04-21T00:48:20.269Z,19.80
2019-04-21T00:51:10.942Z,20.62
2019-04-21T00:53:51.189Z,16.70
2019-04-21T00:56:22.878Z,20.00
2019-04-21T00:59:02.390Z,20.12
2019-04-21T01:01:32.938Z,21.62
2019-04-21T01:04:13.916Z,21.60
2019-04-21T01:06:49.600Z,19.92
2019-04-21T01:09:25.947Z,18.82
2019-04-21T01:12:05.126Z,18.55
2019-04-21T01:14:50.080Z,19.10
2019-04-21T01:17:18.683Z,19.32
2019-04-21T01:19:50.676Z,20.15
2019-04-21T01:22:10.437Z,21.75
2019-04-21T01:24:48.835Z,19.30
2019-04-21T01:27:46.788Z,18.20
2019-04-21T01:30:23.705Z,21.82
2019-04-21T01:33:00.034Z,18.05
2019-04-21T01:35:36.203Z,22.58
2019-04-21T01:38:14.236Z,16.80
2019-04-21T01:40:52.732Z,19.32
2019-04-21T01:43:28.707Z,16.62
2019-04-21T01:46:06.694Z,17.25
2019-04-21T01:48:39.076Z,20.32
2019-04-21T01:51:15.638Z,18.90
2019-04-21T01:54:12.526Z,18.98
2019-04-21T01:57:09.987Z,21.23
2019-04-21T01:59:40.225Z,20.10
2019-04-21T02:02:23.020Z,22.27
2019-04-21T02:05:10.553Z,18.20
2019-04-21T02:07:39.260Z,20.52
2019-04-21T02:10:20.355Z,19.07
2019-04-21T02:12:51.086Z,19.73
2019-04-21T02:15:36.004Z,18.48
2019-04-21T02:18:07.591Z,18.87
2019-04-21T02:20:34.488Z,20.52
2019-04-21T02:23:34.544Z,19.55
2019-04-21T02:25:57.589Z,21.50
2019-04-21T02:28:44.034Z,16.60
2019-04-21T02:31:40.477Z,21.68
2019-04-21T02:34:00.367Z,17.05
2019-04-21T02:42:04.577Z,22.82
2019-04-21T02:44:32.621Z,17.37
2019-04-21T02:46:58.411Z,18.45
2019-04-21T02:52:31.730Z,17.37
2019-04-21T02:54:53.982Z,19.60
2019-04-21T02:57:39.614Z,18.55
2019-04-21T03:00:19.147Z,18.62
2019-04-21T03:05:50.961Z,21.07
2019-04-21T03:08:40.469Z,18.27
2019-04-21T03:11:09.050Z,18.32
2019-04-21T03:13:43.895Z,21.10
2019-04-21T03:16:28.428Z,22.35
2019-04-21T03:21:33.963Z,21.80
2019-04-21T03:24:13.787Z,18.62
2019-04-21T03:27:01.589Z,18.15
2019-04-21T03:29:37.027Z,18.00
2019-04-21T03:37:16.621Z,20.27
2019-04-21T03:39:56.824Z,22.48
2019-04-21T03:45:03.683Z,19.05
2019-04-21T03:47:43.528Z,19.73
2019-04-21T03:50:23.909Z,19.55
2019-04-21T03:58:44.922Z,19.25
2019-04-21T04:12:18.832Z,21.27
2019-04-21T04:15:00.724Z,23.27
2019-04-21T04:20:22.169Z,21.07
2019-04-21T04:22:56.153Z,22.07
2019-04-21T04:25:28.005Z,21.42
2019-04-21T04:28:16.265Z,21.23
2019-04-21T04:30:52.756Z,22.58
2019-04-21T04:36:29.024Z,22.73
2019-04-21T04:38:51.999Z,21.82
2019-04-21T04:41:49.227Z,24.25
2019-04-21T04:44:30.314Z,21.52
2019-04-21T04:52:19.569Z,22.75
2019-04-21T05:00:14.501Z,25.43
2019-04-21T05:07:58.042Z,23.32
2019-04-21T05:13:02.311Z,22.40
2019-04-21T05:15:32.214Z,23.40
2019-04-21T05:18:13.386Z,23.65
2019-04-21T05:20:53.383Z,24.98
2019-04-21T05:23:29.229Z,24.82
2019-04-21T05:25:54.390Z,26.15
2019-04-21T05:28:32.959Z,28.25
2019-04-21T05:31:38.254Z,23.07
2019-04-21T05:34:18.597Z,27.82
2019-04-21T05:37:01.028Z,24.05
2019-04-21T05:40:00.517Z,24.60
2019-04-21T05:42:44.440Z,24.92
2019-04-21T05:45:26.824Z,26.55
2019-04-21T05:48:28.278Z,25.20
2019-04-21T05:50:58.873Z,25.27
2019-04-21T05:53:40.905Z,25.05
2019-04-21T05:56:25.671Z,25.23
2019-04-21T05:58:58.813Z,26.00
2019-04-21T06:04:17.465Z,28.87
2019-04-21T06:07:00.589Z,26.37
2019-04-21T06:09:27.413Z,28.95
2019-04-21T06:12:05.906Z,26.35
2019-04-21T06:14:46.446Z,25.15
2019-04-21T06:17:25.257Z,29.30
2019-04-21T06:19:57.277Z,26.23
2019-04-21T06:22:32.858Z,28.02
2019-04-21T06:25:31.601Z,27.55
2019-04-21T06:27:44.340Z,24.43
2019-04-21T06:30:27.716Z,28.10
2019-04-21T06:32:52.701Z,26.85
2019-04-21T06:39:06.350Z,30.32
2019-04-21T06:44:22.728Z,30.80
2019-04-21T06:46:47.127Z,27.22
2019-04-21T06:49:19.125Z,31.85
2019-04-21T06:52:11.428Z,29.30
2019-04-21T06:54:41.055Z,30.25
2019-04-21T06:57:18.218Z,29.37
2019-04-21T06:59:49.675Z,26.87
2019-04-21T07:05:09.003Z,28.45
2019-04-21T07:08:06.295Z,29.02
2019-04-21T07:10:30.733Z,28.15
2019-04-21T07:12:59.251Z,26.95
2019-04-21T07:15:43.545Z,27.95
2019-04-21T07:18:19.499Z,30.10
2019-04-21T07:20:54.947Z,28.07
2019-04-21T07:23:31.166Z,28.38
2019-04-21T07:26:11.148Z,29.15
2019-04-21T07:28:56.277Z,25.85
2019-04-21T07:31:24.994Z,30.72
2019-04-21T07:34:21.647Z,30.68
2019-04-21T07:36:46.354Z,28.47
2019-04-21T07:39:12.038Z,27.30
2019-04-21T07:41:51.086Z,25.68
2019-04-21T07:44:28.526Z,29.18
2019-04-21T07:47:23.529Z,26.60
2019-04-21T07:50:09.071Z,30.88
2019-04-21T07:52:55.281Z,27.42
2019-04-21T07:58:19.116Z,29.50
2019-04-21T08:03:20.454Z,28.15
2019-04-21T08:05:58.441Z,28.38
2019-04-21T08:08:31.450Z,30.45
2019-04-21T08:11:09.085Z,28.73
2019-04-21T08:13:55.089Z,26.48
2019-04-21T08:16:24.424Z,26.27
2019-04-21T08:18:59.483Z,27.90
2019-04-21T08:21:43.371Z,28.38
2019-04-21T08:24:14.973Z,26.77
2019-04-21T08:26:53.116Z,26.65
2019-04-21T08:29:38.033Z,26.82
2019-04-21T08:32:07.954Z,26.25
2019-04-21T08:34:54.871Z,26.33
2019-04-21T08:37:26.126Z,32.00
2019-04-21T08:42:52.377Z,29.45
2019-04-21T08:45:33.613Z,30.00
2019-04-21T08:48:04.151Z,27.52
2019-04-21T08:50:47.587Z,26.25
2019-04-21T08:53:24.737Z,26.77
2019-04-21T08:56:27.795Z,26.95
2019-04-21T09:02:06.259Z,31.40
2019-04-21T09:04:47.998Z,29.18
2019-04-21T09:07:29.181Z,27.80
2019-04-21T09:10:05.195Z,29.05
2019-04-21T09:12:42.790Z,28.85
2019-04-21T09:15:14.459Z,28.55
2019-04-21T09:17:44.652Z,26.20
2019-04-21T09:20:33.406Z,25.52
2019-04-21T09:23:06.883Z,28.87
2019-04-21T09:25:46.748Z,27.87
2019-04-21T09:28:24.139Z,25.27
2019-04-21T09:30:49.961Z,27.22
2019-04-21T09:33:18.501Z,30.80
2019-04-21T09:35:59.068Z,28.40
2019-04-21T09:38:37.119Z,27.87
2019-04-21T09:41:15.519Z,29.50
2019-04-21T09:43:48.978Z,27.22
2019-04-21T09:46:23.122Z,26.17
2019-04-21T09:49:02.661Z,29.95
2019-04-21T09:51:36.882Z,27.98
2019-04-21T09:54:20.717Z,29.57
2019-04-21T09:56:55.991Z,24.98
2019-04-21T09:59:32.127Z,25.77
2019-04-21T10:02:11.871Z,25.60
2019-04-21T10:04:40.642Z,28.60
2019-04-21T10:07:41.946Z,25.27
2019-04-21T10:10:15.435Z,27.73
2019-04-21T10:12:51.891Z,24.63
2019-04-21T10:15:28.310Z,30.27
2019-04-21T10:18:08.692Z,22.62
2019-04-21T10:20:44.856Z,24.23
2019-04-21T10:23:21.240Z,24.18
2019-04-21T10:25:56.845Z,26.57
2019-04-21T10:28:32.910Z,23.32
2019-04-21T10:31:09.039Z,24.15
2019-04-21T10:33:46.273Z,25.82
2019-04-21T10:36:22.717Z,22.85
2019-04-21T10:39:00.397Z,20.77
2019-04-21T10:41:35.309Z,23.83
2019-04-21T10:44:11.449Z,23.70
2019-04-21T10:46:48.970Z,23.30
2019-04-21T10:49:24.534Z,23.47
2019-04-21T10:52:01.346Z,21.77
2019-04-21T10:55:05.623Z,26.30
2019-04-21T10:57:22.265Z,23.35
2019-04-21T10:59:59.429Z,24.32
2019-04-21T11:02:41.332Z,21.10
2019-04-21T11:05:16.816Z,21.70
2019-04-21T11:08:07.655Z,19.17
2019-04-21T11:10:31.968Z,21.87
2019-04-21T11:13:08.409Z,21.40
2019-04-21T11:15:43.719Z,19.37
2019-04-21T11:18:26.025Z,19.23
2019-04-21T11:21:02.846Z,17.40
2019-04-21T11:23:38.453Z,16.02
2019-04-21T11:26:14.004Z,15.63
2019-04-21T11:28:58.998Z,17.12
2019-04-21T11:31:45.225Z,15.10
2019-04-21T11:34:27.445Z,13.30
2019-04-21T11:37:18.062Z,12.93
2019-04-21T11:40:05.486Z,13.45
2019-04-21T11:42:39.696Z,12.47
2019-04-21T11:45:28.338Z,13.15
2019-04-21T11:48:24.110Z,12.47
2019-04-21T11:51:04.854Z,14.90
2019-04-21T11:53:41.103Z,13.45
2019-04-21T11:56:18.917Z,13.25
2019-04-21T11:58:54.244Z,11.68
2019-04-21T12:01:29.810Z,12.63
2019-04-21T12:04:05.538Z,12.03
2019-04-21T12:06:44.447Z,12.13
2019-04-21T12:09:18.929Z,12.28
2019-04-21T12:11:54.410Z,12.18
2019-04-21T12:14:30.273Z,13.53
2019-04-21T12:17:05.851Z,13.53
2019-04-21T12:19:41.366Z,14.50
2019-04-21T12:22:22.118Z,11.57
2019-04-21T12:24:53.816Z,14.58
2019-04-21T12:27:29.927Z,13.90
2019-04-21T12:30:06.120Z,12.05
2019-04-21T12:32:56.076Z,12.85
2019-04-21T12:35:31.476Z,12.88
2019-04-21T12:38:07.026Z,11.95
2019-04-21T12:40:42.442Z,12.60
2019-04-21T12:43:18.793Z,12.95
2019-04-21T12:45:55.866Z,12.70
2019-04-21T12:48:35.724Z,12.15
2019-04-21T12:51:13.891Z,11.93
2019-04-21T12:53:49.882Z,13.83
2019-04-21T12:56:31.646Z,11.80
2019-04-21T12:59:13.104Z,11.73
2019-04-21T13:01:48.652Z,13.10
2019-04-21T13:04:23.930Z,14.65
2019-04-21T13:06:59.482Z,16.25
2019-04-21T13:09:36.117Z,11.93
2019-04-21T13:12:13.009Z,12.82
2019-04-21T13:14:49.543Z,12.70
2019-04-21T13:17:25.576Z,12.70
2019-04-21T13:20:01.227Z,11.05
2019-04-21T13:22:37.521Z,11.18
2019-04-21T13:25:14.041Z,12.55
2019-04-21T13:27:49.938Z,11.65
2019-04-21T13:30:26.899Z,10.90
2019-04-21T13:33:03.033Z,12.37
2019-04-21T13:35:39.146Z,11.03
2019-04-21T13:38:24.370Z,12.28
2019-04-21T13:41:27.213Z,12.37
2019-04-21T13:44:15.673Z,12.45
2019-04-21T13:46:52.463Z,12.45
2019-04-21T13:49:29.466Z,12.20
2019-04-21T13:52:06.660Z,12.15
2019-04-21T13:54:43.261Z,12.47
2019-04-21T13:57:18.841Z,12.07
2019-04-21T13:59:55.168Z,11.95
2019-04-21T14:02:31.445Z,13.22
2019-04-21T14:05:12.306Z,12.45
2019-04-21T14:07:48.162Z,13.43
2019-04-21T14:10:23.961Z,10.95
2019-04-21T14:13:00.456Z,11.33
2019-04-21T14:15:36.103Z,13.90
2019-04-21T14:18:11.392Z,12.58
2019-04-21T14:20:46.951Z,13.48
2019-04-21T14:23:31.736Z,13.22
2019-04-21T14:25:59.707Z,13.75
2019-04-21T14:28:36.649Z,17.60
2019-04-21T14:31:12.485Z,15.30
2019-04-21T14:33:47.980Z,16.10
2019-04-21T14:36:23.340Z,14.53
2019-04-21T14:38:58.774Z,17.82
2019-04-21T14:41:33.964Z,14.00
2019-04-21T14:44:09.330Z,14.38
2019-04-21T14:46:53.301Z,12.55
2019-04-21T14:49:51.045Z,13.62
2019-04-21T14:52:30.754Z,13.90
2019-04-21T14:55:22.797Z,15.55
2019-04-21T14:58:03.313Z,14.75
2019-04-21T15:00:59.825Z,14.63
2019-04-21T15:03:35.345Z,13.65
2019-04-21T15:06:11.608Z,14.10
2019-04-21T15:08:51.082Z,13.78
2019-04-21T15:11:26.558Z,14.53
2019-04-21T15:14:02.067Z,14.90
2019-04-21T15:16:38.601Z,12.60
2019-04-21T15:19:14.790Z,13.60
2019-04-21T15:21:50.358Z,14.30
2019-04-21T15:24:26.635Z,16.35
2019-04-21T15:27:03.085Z,13.70
2019-04-21T15:29:38.557Z,13.75
2019-04-21T15:32:14.890Z,15.53
2019-04-21T15:34:50.312Z,13.25
2019-04-21T15:37:26.045Z,13.65
2019-04-21T15:40:12.248Z,12.85
2019-04-21T15:42:38.924Z,13.32
2019-04-21T15:45:18.696Z,12.68
2019-04-21T15:47:58.130Z,14.03
2019-04-21T15:50:35.581Z,15.23
2019-04-21T15:53:21.655Z,12.45
2019-04-21T15:56:02.564Z,13.90
2019-04-21T15:59:00.970Z,13.50
2019-04-21T16:01:48.464Z,13.65
2019-04-21T16:04:25.118Z,14.10
2019-04-21T16:07:01.554Z,14.43
2019-04-21T16:09:37.571Z,13.93
2019-04-21T16:12:13.946Z,12.55
2019-04-21T16:14:50.361Z,13.22
2019-04-21T16:17:25.669Z,14.95
2019-04-21T16:20:02.038Z,13.30
2019-04-21T16:22:38.893Z,11.57
2019-04-21T16:25:15.006Z,13.50
2019-04-21T16:27:51.036Z,14.00
2019-04-21T16:30:26.425Z,12.98
2019-04-21T16:33:01.993Z,12.25
2019-04-21T16:35:39.851Z,12.93
2019-04-21T16:38:15.449Z,18.35
2019-04-21T16:40:57.372Z,13.18
2019-04-21T16:43:28.885Z,15.18
2019-04-21T16:46:08.763Z,12.65
2019-04-21T16:48:44.187Z,12.80
2019-04-21T16:51:20.179Z,13.90
2019-04-21T16:53:59.894Z,14.07
2019-04-21T16:56:43.919Z,13.72
2019-04-21T16:59:26.851Z,13.03
2019-04-21T17:02:04.736Z,12.47
2019-04-21T17:04:40.356Z,11.20
2019-04-21T17:07:15.761Z,12.50
2019-04-21T17:09:52.622Z,12.43
2019-04-21T17:12:28.750Z,14.25
2019-04-21T17:15:21.482Z,13.65
2019-04-21T17:18:06.430Z,12.70
2019-04-21T17:20:35.731Z,10.98
2019-04-21T17:23:01.680Z,12.03
2019-04-21T17:25:37.096Z,12.93
2019-04-21T17:28:12.517Z,11.48
2019-04-21T17:30:48.519Z,11.68
2019-04-21T17:33:28.272Z,11.50
2019-04-21T17:36:02.926Z,11.20
2019-04-21T17:38:39.416Z,12.33
2019-04-21T17:41:25.944Z,11.38
2019-04-21T17:43:52.564Z,10.20
2019-04-21T17:46:38.547Z,10.88
2019-04-21T17:49:07.080Z,10.03
2019-04-21T17:52:11.440Z,10.25
2019-04-21T17:54:53.891Z,9.78
2019-04-21T17:57:43.868Z,13.00
2019-04-21T18:00:36.326Z,11.85
2019-04-21T18:03:01.855Z,9.70
2019-04-21T18:05:37.484Z,10.32
2019-04-21T18:08:18.535Z,9.30
2019-04-21T18:10:46.384Z,10.70
2019-04-21T18:13:14.335Z,10.25
2019-04-21T18:16:02.891Z,10.05
2019-04-21T18:18:24.479Z,10.50
2019-04-21T18:21:06.946Z,9.40
2019-04-21T18:24:00.704Z,11.48
2019-04-21T18:26:39.441Z,11.90
2019-04-21T18:29:05.610Z,10.05
2019-04-21T18:31:48.080Z,11.18
2019-04-21T18:35:01.522Z,12.98
2019-04-21T18:38:01.241Z,11.40
2019-04-21T18:40:34.779Z,11.43
2019-04-21T18:43:44.781Z,10.28
2019-04-21T18:46:26.608Z,10.20
2019-04-21T18:48:53.424Z,10.38
2019-04-21T18:51:46.096Z,10.28
2019-04-21T18:54:47.133Z,10.55
2019-04-21T18:57:22.557Z,10.23
2019-04-21T18:59:49.444Z,10.10
2019-04-21T19:02:31.813Z,11.18
2019-04-21T19:05:15.444Z,10.90
2019-04-21T19:08:02.987Z,10.43
2019-04-21T19:10:42.247Z,10.30
2019-04-21T19:16:17.043Z,12.28
2019-04-21T19:18:42.872Z,10.05
2019-04-21T19:21:06.110Z,10.32
2019-04-21T19:24:10.733Z,10.30
2019-04-21T19:26:31.513Z,10.13
2019-04-21T19:29:01.234Z,9.50
2019-04-21T19:31:39.912Z,10.05
2019-04-21T19:34:05.838Z,10.20
2019-04-21T19:36:34.574Z,10.08
2019-04-21T19:39:16.388Z,9.90
2019-04-21T19:42:00.773Z,10.30
2019-04-21T19:44:45.202Z,10.88
2019-04-21T19:47:20.838Z,9.98
2019-04-21T19:50:01.473Z,11.10
2019-04-21T19:52:30.952Z,11.83
2019-04-21T19:54:54.473Z,11.45
2019-04-21T19:57:31.193Z,11.00
2019-04-21T20:00:08.207Z,11.85
2019-04-21T20:02:44.863Z,11.95
2019-04-21T20:05:28.209Z,12.20
2019-04-21T20:08:11.388Z,11.33
2019-04-21T20:10:55.034Z,11.57
2019-04-21T20:13:40.898Z,12.98
2019-04-21T20:16:06.808Z,12.37
2019-04-21T20:18:34.842Z,12.05
2019-04-21T20:21:04.006Z,11.50
2019-04-21T20:23:42.560Z,13.98
2019-04-21T20:26:21.038Z,11.88
2019-04-21T20:29:03.125Z,12.80
2019-04-21T20:31:49.007Z,12.78
2019-04-21T20:34:33.906Z,11.73
2019-04-21T20:37:07.679Z,11.83
2019-04-21T20:39:26.965Z,13.03
2019-04-21T20:42:19.845Z,12.88
2019-04-21T20:45:13.033Z,13.22
2019-04-21T20:47:23.191Z,12.60
2019-04-21T20:50:03.061Z,13.10
2019-04-21T20:52:50.912Z,13.70
2019-04-21T20:55:16.587Z,13.08
2019-04-21T20:57:55.224Z,13.50
2019-04-21T21:00:45.907Z,14.95
2019-04-21T21:03:23.204Z,13.10
2019-04-21T21:05:48.914Z,14.05
2019-04-21T21:08:31.434Z,15.20
2019-04-21T21:11:00.876Z,14.60
2019-04-21T21:13:44.468Z,15.25
2019-04-21T21:16:29.393Z,16.07
2019-04-21T21:21:38.341Z,16.70
2019-04-21T21:24:08.659Z,17.52
2019-04-21T21:26:52.354Z,15.28
2019-04-21T21:29:26.415Z,14.80
2019-04-21T21:32:09.732Z,14.03
2019-04-21T21:34:47.853Z,15.20
2019-04-21T21:37:26.825Z,15.30
2019-04-21T21:40:08.245Z,17.12
2019-04-21T21:42:26.438Z,16.45
2019-04-21T21:45:07.515Z,15.35
2019-04-21T21:47:54.938Z,15.88
2019-04-21T21:50:20.830Z,15.63
2019-04-21T21:52:59.942Z,16.35
2019-04-21T21:55:25.629Z,16.07
2019-04-21T21:58:03.502Z,18.32
2019-04-21T22:00:42.957Z,17.55
2019-04-21T22:03:24.494Z,16.80
2019-04-21T22:06:02.132Z,16.85
2019-04-21T22:08:34.383Z,18.57
2019-04-21T22:11:10.929Z,17.65
2019-04-21T22:13:53.283Z,20.60
2019-04-21T22:16:28.849Z,19.10
2019-04-21T22:19:18.436Z,18.90
2019-04-21T22:21:55.076Z,15.98
2019-04-21T22:24:36.259Z,17.77
2019-04-21T22:26:52.649Z,19.65
2019-04-21T22:29:39.178Z,16.90
2019-04-21T22:32:10.282Z,20.62
2019-04-21T22:34:48.737Z,19.12
2019-04-21T22:37:36.809Z,17.40
2019-04-21T22:40:08.379Z,20.32
2019-04-21T22:42:44.376Z,18.35
2019-04-21T22:45:11.374Z,18.07
2019-04-21T22:47:49.314Z,18.10
2019-04-21T22:50:30.685Z,19.65
2019-04-21T22:53:09.628Z,19.92
2019-04-21T22:55:43.174Z,19.85
2019-04-21T22:58:25.728Z,19.75
2019-04-21T23:00:58.583Z,18.57
2019-04-21T23:03:33.961Z,20.00
2019-04-21T23:06:16.299Z,17.85
2019-04-21T23:08:48.109Z,18.87
2019-04-21T23:11:23.646Z,16.93
2019-04-21T23:14:04.408Z,19.40
2019-04-21T23:16:40.259Z,18.40
2019-04-21T23:19:34.930Z,17.67
2019-04-21T23:22:18.329Z,19.07
2019-04-21T23:24:55.569Z,17.42
2019-04-21T23:27:23.993Z,17.37
2019-04-21T23:30:13.600Z,19.75
2019-04-21T23:32:38.574Z,16.60
2019-04-21T23:35:11.426Z,18.12
2019-04-21T23:37:44.620Z,17.10
2019-04-21T23:40:19.880Z,18.48
2019-04-21T23:42:55.272Z,16.55
2019-04-21T23:45:36.186Z,17.62
2019-04-21T23:48:18.482Z,19.75
2019-04-21T23:50:51.325Z,17.25
2019-04-21T23:53:25.698Z,19.25
2019-04-21T23:56:01.314Z,20.48
2019-04-21T23:58:38.437Z,19.80
